Time;durP1;ratioP1;P1;durP2;ratioP2;P2;SDS_P1;SDS_P2;PMS_P1;PMS_P2;Temp;Humidity;BMP_temperature;BMP_pressure;BME280_temperature;BME280_humidity;BME280_pressure;Samples;Min_cycle;Max_cycle;Signal;HPM_P1;HPM_P2
2021/05/11 00:00:57;;;;;;;5.93;2.72;;;17.40;99.90;;;;;;4966620;28;20630;-74
2021/05/11 00:03:22;;;;;;;5.35;2.78;;;17.40;99.90;;;;;;4952772;28;20079;-75
2021/05/11 00:05:48;;;;;;;4.07;2.35;;;17.30;99.90;;;;;;4949243;28;20533;-74
2021/05/11 00:08:13;;;;;;;7.38;2.63;;;17.40;99.90;;;;;;4954257;28;20083;-75
2021/05/11 00:10:39;;;;;;;4.07;2.85;;;17.40;99.90;;;;;;4968089;28;20114;-75
2021/05/11 00:13:05;;;;;;;3.13;2.42;;;17.30;99.90;;;;;;4972077;28;20093;-75
2021/05/11 00:15:30;;;;;;;3.63;2.50;;;17.30;99.90;;;;;;4962588;28;20084;-75
2021/05/11 00:17:56;;;;;;;4.63;2.63;;;17.40;99.90;;;;;;4956255;28;20084;-75
2021/05/11 00:20:22;;;;;;;3.35;2.30;;;17.30;99.90;;;;;;4968071;28;20102;-75
2021/05/11 00:22:48;;;;;;;4.20;2.40;;;17.30;99.90;;;;;;4954126;28;20075;-75
2021/05/11 00:25:14;;;;;;;7.72;2.50;;;17.30;99.90;;;;;;4938362;29;20569;-75
2021/05/11 00:27:41;;;;;;;5.18;2.20;;;17.20;99.90;;;;;;4937362;28;20463;-74
2021/05/11 00:30:08;;;;;;;6.57;2.28;;;17.10;99.90;;;;;;4962569;28;20121;-75
2021/05/11 00:32:33;;;;;;;5.28;2.33;;;16.90;99.90;;;;;;4965949;28;20076;-75
2021/05/11 00:34:59;;;;;;;3.40;2.40;;;16.70;99.90;;;;;;4970575;28;20086;-75
2021/05/11 00:37:24;;;;;;;3.20;2.30;;;16.90;99.90;;;;;;4951596;28;20113;-75
2021/05/11 00:39:50;;;;;;;3.20;2.15;;;16.90;99.90;;;;;;4954844;28;20100;-75
2021/05/11 00:42:16;;;;;;;4.60;2.35;;;16.80;99.90;;;;;;4956455;28;20138;-75
2021/05/11 00:44:41;;;;;;;6.47;2.22;;;16.90;99.90;;;;;;4960930;28;20083;-75
2021/05/11 00:47:07;;;;;;;5.13;2.88;;;16.90;99.90;;;;;;4964428;28;20086;-75
2021/05/11 00:49:34;;;;;;;6.65;2.72;;;16.90;99.90;;;;;;4963957;28;20161;-75
2021/05/11 00:52:02;;;;;;;2.03;1.67;;;16.90;99.90;;;;;;4954013;28;20548;-75
2021/05/11 00:54:28;;;;;;;4.90;1.77;;;16.90;99.90;;;;;;4957342;28;20154;-75
2021/05/11 00:56:54;;;;;;;4.93;2.10;;;16.80;99.90;;;;;;4971620;28;20567;-75
2021/05/11 00:59:30;;;;;;;4.53;2.17;;;16.70;99.90;;;;;;4966669;28;20103;-75
2021/05/11 01:02:01;;;;;;;3.70;1.85;;;16.70;99.90;;;;;;4965514;28;20087;-75
2021/05/11 01:04:27;;;;;;;4.63;2.20;;;16.60;99.90;;;;;;4965557;28;20075;-75
2021/05/11 01:06:54;;;;;;;4.78;1.85;;;16.60;99.90;;;;;;4950941;28;20080;-75
2021/05/11 01:09:21;;;;;;;4.25;2.20;;;16.60;99.90;;;;;;4953867;28;20115;-75
2021/05/11 01:11:47;;;;;;;2.75;2.10;;;16.60;99.90;;;;;;4960691;28;20171;-75
2021/05/11 01:14:13;;;;;;;5.00;2.05;;;16.50;99.90;;;;;;4970046;28;20151;-75
2021/05/11 01:16:40;;;;;;;3.80;2.83;;;16.50;99.90;;;;;;4970897;28;20098;-75
2021/05/11 01:19:15;;;;;;;2.55;1.65;;;16.40;99.90;;;;;;4967146;28;20079;-75
2021/05/11 01:24:23;;;;;;;4.90;2.08;;;16.30;99.90;;;;;;4956484;28;20455;-75
2021/05/11 01:53:54;;;;;;;2.90;1.15;;;16.00;99.90;;;;;;4951700;28;20079;-74
2021/05/11 01:56:36;;;;;;;3.00;1.27;;;15.90;99.90;;;;;;4956066;28;20927;-74
2021/05/11 02:23:36;;;;;;;1.35;1.08;;;15.70;99.90;;;;;;4952447;28;20562;-74
2021/05/11 02:26:03;;;;;;;3.50;1.35;;;15.60;99.90;;;;;;4951774;28;20084;-75
2021/05/11 02:28:29;;;;;;;2.88;1.23;;;15.50;99.90;;;;;;4951096;28;20191;-75
2021/05/11 02:30:54;;;;;;;4.32;1.30;;;15.60;99.90;;;;;;4951718;28;20207;-74
2021/05/11 02:33:20;;;;;;;1.83;1.38;;;15.50;99.90;;;;;;4932428;28;20175;-74
2021/05/11 02:35:47;;;;;;;2.35;1.40;;;15.50;99.90;;;;;;4949783;28;20080;-74
2021/05/11 02:38:12;;;;;;;2.75;1.30;;;15.50;99.90;;;;;;4933666;28;20532;-74
2021/05/11 02:40:38;;;;;;;2.75;1.25;;;15.50;99.90;;;;;;4950981;28;20182;-75
2021/05/11 02:43:12;;;;;;;1.55;0.90;;;15.50;99.90;;;;;;4957309;28;20076;-75
2021/05/11 02:45:37;;;;;;;1.10;0.90;;;15.40;99.90;;;;;;4933761;28;20079;-75
2021/05/11 02:48:03;;;;;;;3.33;0.90;;;15.40;99.90;;;;;;4940197;29;20072;-75
2021/05/11 02:50:31;;;;;;;1.45;1.02;;;15.30;99.90;;;;;;4934448;29;20651;-75
2021/05/11 02:52:57;;;;;;;1.40;0.65;;;15.30;99.90;;;;;;4951358;28;20130;-75
2021/05/11 02:55:23;;;;;;;1.23;1.08;;;15.40;99.90;;;;;;4957381;28;20123;-75
2021/05/11 02:57:50;;;;;;;1.38;0.90;;;15.30;99.90;;;;;;4965795;28;20079;-75
2021/05/11 03:00:17;;;;;;;2.30;0.90;;;15.30;99.90;;;;;;4952906;28;20087;-75
2021/05/11 03:02:44;;;;;;;3.08;0.98;;;15.10;99.90;;;;;;4957716;28;20163;-75
2021/05/11 03:05:10;;;;;;;1.75;0.98;;;15.20;99.90;;;;;;4952828;28;20094;-75
2021/05/11 03:07:36;;;;;;;2.97;0.75;;;15.30;99.90;;;;;;4962793;28;20735;-75
2021/05/11 03:10:05;;;;;;;2.00;1.38;;;15.20;99.90;;;;;;4965854;28;20107;-75
2021/05/11 03:12:30;;;;;;;2.22;0.80;;;15.10;99.90;;;;;;4935495;28;20090;-75
2021/05/11 03:14:56;;;;;;;1.33;0.68;;;15.10;99.90;;;;;;4969083;28;20079;-75
2021/05/11 03:17:21;;;;;;;0.95;0.57;;;15.00;99.90;;;;;;4950833;28;20111;-75
2021/05/11 03:19:47;;;;;;;1.83;0.77;;;14.90;99.90;;;;;;4960337;28;20174;-75
2021/05/11 03:22:13;;;;;;;3.28;0.60;;;15.00;99.90;;;;;;4942756;28;20079;-75
2021/05/11 03:24:43;;;;;;;2.75;1.55;;;15.00;99.90;;;;;;4948717;28;20071;-76
2021/05/11 03:27:10;;;;;;;1.73;1.10;;;15.00;99.90;;;;;;4950667;28;20072;-75
2021/05/11 03:29:35;;;;;;;0.90;0.57;;;14.90;99.90;;;;;;4953040;28;20161;-75
2021/05/11 03:32:01;;;;;;;1.67;0.80;;;15.00;99.90;;;;;;4952416;28;20645;-75
2021/05/11 03:34:27;;;;;;;1.77;0.55;;;14.60;99.90;;;;;;4952674;28;20083;-75
2021/05/11 03:36:52;;;;;;;1.30;0.65;;;14.60;99.90;;;;;;4953917;28;20076;-74
2021/05/11 03:39:18;;;;;;;1.85;0.95;;;14.30;99.90;;;;;;4950539;28;20108;-75
2021/05/11 03:41:55;;;;;;;1.25;0.70;;;14.10;99.90;;;;;;4958908;28;20574;-75
2021/05/11 03:44:25;;;;;;;1.30;0.80;;;14.30;99.90;;;;;;4970512;28;20074;-75
2021/05/11 03:46:50;;;;;;;1.65;0.80;;;14.30;99.90;;;;;;4950210;28;20079;-74
2021/05/11 03:49:16;;;;;;;2.10;0.93;;;14.40;99.90;;;;;;4952502;28;20087;-75
2021/05/11 03:51:41;;;;;;;1.90;0.90;;;14.30;99.90;;;;;;4950824;28;20572;-76
2021/05/11 03:54:08;;;;;;;0.90;0.70;;;14.40;99.90;;;;;;4951393;28;20075;-75
2021/05/11 03:56:35;;;;;;;1.60;0.90;;;14.30;99.90;;;;;;4953367;28;20554;-75
2021/05/11 03:59:01;;;;;;;2.47;0.68;;;14.40;99.90;;;;;;4942102;28;20133;-75
2021/05/11 04:01:26;;;;;;;1.02;0.90;;;14.30;99.90;;;;;;4954329;28;20130;-75
2021/05/11 04:03:52;;;;;;;5.65;1.35;;;14.30;99.90;;;;;;4968406;28;20551;-75
2021/05/11 04:06:18;;;;;;;2.05;0.98;;;14.20;99.90;;;;;;4953320;28;20143;-75
2021/05/11 04:08:51;;;;;;;2.35;1.23;;;14.20;99.90;;;;;;4949771;28;20079;-75
2021/05/11 04:16:27;;;;;;;1.55;1.10;;;14.40;99.90;;;;;;4950037;28;20150;-75
2021/05/11 04:18:53;;;;;;;2.45;0.90;;;14.40;99.90;;;;;;4962060;28;20079;-75
2021/05/11 04:21:20;;;;;;;1.88;1.15;;;14.30;99.90;;;;;;4941166;28;20178;-75
2021/05/11 04:23:47;;;;;;;1.58;1.00;;;14.30;99.90;;;;;;4960806;28;20075;-75
2021/05/11 04:26:13;;;;;;;1.60;1.23;;;14.40;99.90;;;;;;4962037;28;20503;-75
2021/05/11 04:28:40;;;;;;;1.50;0.93;;;14.20;99.90;;;;;;4962982;28;20742;-75
2021/05/11 04:31:06;;;;;;;2.17;1.17;;;14.30;99.90;;;;;;4958421;28;20103;-76
2021/05/11 04:33:32;;;;;;;1.92;1.10;;;14.20;99.90;;;;;;4964008;28;20144;-75
2021/05/11 04:35:59;;;;;;;1.45;1.13;;;14.30;99.90;;;;;;4955158;28;20083;-75
2021/05/11 04:38:25;;;;;;;2.28;0.90;;;14.40;99.90;;;;;;4947548;28;20087;-75
2021/05/11 04:40:52;;;;;;;1.85;0.85;;;14.40;99.90;;;;;;4955888;28;20178;-75
2021/05/11 04:43:18;;;;;;;1.48;0.95;;;14.40;99.90;;;;;;4966875;28;20436;-76
2021/05/11 04:45:45;;;;;;;1.80;1.10;;;14.10;99.90;;;;;;4952169;28;20080;-75
2021/05/11 04:48:11;;;;;;;2.00;1.17;;;14.10;99.90;;;;;;4969537;28;20416;-75
2021/05/11 04:50:36;;;;;;;1.50;1.00;;;14.20;99.90;;;;;;4969574;28;20090;-75
2021/05/11 04:53:02;;;;;;;2.38;0.88;;;14.20;99.90;;;;;;4969368;28;20141;-75
2021/05/11 04:55:28;;;;;;;4.25;1.02;;;14.20;99.90;;;;;;4951862;28;20095;-75
2021/05/11 04:57:53;;;;;;;3.03;1.05;;;14.30;99.90;;;;;;4973469;28;20071;-75
2021/05/11 05:00:19;;;;;;;2.45;0.95;;;14.20;99.90;;;;;;4968161;28;20110;-75
2021/05/11 05:02:47;;;;;;;1.40;0.88;;;14.30;99.90;;;;;;4966689;28;20098;-75
2021/05/11 05:05:14;;;;;;;1.85;1.48;;;14.10;99.90;;;;;;4963640;28;20079;-74
2021/05/11 05:07:40;;;;;;;1.02;0.93;;;14.00;99.90;;;;;;4968617;28;20109;-74
2021/05/11 05:10:07;;;;;;;2.15;0.98;;;14.20;99.90;;;;;;4968462;28;20142;-74
2021/05/11 05:12:33;;;;;;;1.27;0.98;;;14.20;99.90;;;;;;4963462;28;20079;-74
2021/05/11 05:14:59;;;;;;;1.17;0.77;;;14.30;99.90;;;;;;4972124;28;20086;-75
2021/05/11 05:17:25;;;;;;;3.03;0.80;;;14.30;99.90;;;;;;4964738;28;20107;-74
2021/05/11 05:19:51;;;;;;;0.85;0.70;;;14.00;99.90;;;;;;4970620;28;20580;-75
2021/05/11 05:22:17;;;;;;;2.13;1.00;;;13.90;99.90;;;;;;4969733;28;20564;-74
2021/05/11 05:27:25;;;;;;;2.53;0.73;;;14.10;99.90;;;;;;4963804;28;20440;-77
2021/05/11 05:29:51;;;;;;;1.02;0.88;;;14.20;99.90;;;;;;4963795;28;20177;-75
2021/05/11 05:32:17;;;;;;;1.65;0.90;;;14.20;99.90;;;;;;4958300;28;20115;-75
2021/05/11 05:34:43;;;;;;;3.42;0.90;;;14.20;99.90;;;;;;4956625;28;20082;-75
2021/05/11 05:37:10;;;;;;;4.93;1.27;;;14.40;99.90;;;;;;4969237;28;20079;-74
2021/05/11 05:39:45;;;;;;;1.35;0.90;;;14.50;99.90;;;;;;4972335;28;20123;-75
2021/05/11 05:42:10;;;;;;;3.40;1.20;;;14.60;99.90;;;;;;4965247;28;20067;-77
2021/05/11 05:44:36;;;;;;;2.35;1.00;;;14.60;99.90;;;;;;4960614;28;20130;-75
2021/05/11 05:47:02;;;;;;;1.13;0.80;;;14.70;99.90;;;;;;4968999;28;20079;-75
2021/05/11 05:49:33;;;;;;;2.78;1.00;;;14.70;99.90;;;;;;4972469;28;20560;-76
2021/05/11 05:52:04;;;;;;;1.95;1.10;;;14.80;99.90;;;;;;4970193;28;20536;-75
2021/05/11 05:54:29;;;;;;;2.90;0.80;;;14.80;99.90;;;;;;4968504;28;20067;-75
2021/05/11 05:56:55;;;;;;;1.67;0.90;;;15.00;99.90;;;;;;4957274;28;20611;-75
2021/05/11 05:59:21;;;;;;;1.40;0.80;;;14.90;99.90;;;;;;4969359;28;20087;-76
2021/05/11 06:01:48;;;;;;;1.40;1.00;;;15.00;99.90;;;;;;4954490;28;20082;-76
2021/05/11 06:04:18;;;;;;;1.35;0.82;;;14.90;99.90;;;;;;4952229;28;20542;-75
2021/05/11 06:06:45;;;;;;;1.75;0.70;;;14.90;99.90;;;;;;4951567;28;20087;-75
2021/05/11 06:09:17;;;;;;;0.85;0.80;;;14.90;99.90;;;;;;4958015;28;20120;-75
2021/05/11 06:11:49;;;;;;;1.00;0.70;;;14.90;99.90;;;;;;4960919;28;20722;-75
2021/05/11 06:17:01;;;;;;;2.35;0.90;;;15.10;99.90;;;;;;4955665;28;20167;-75
2021/05/11 06:19:38;;;;;;;1.60;1.08;;;15.10;99.90;;;;;;4951002;28;20095;-76
2021/05/11 06:22:04;;;;;;;2.13;0.93;;;15.20;99.90;;;;;;4956078;28;20540;-75
2021/05/11 06:24:29;;;;;;;3.35;1.02;;;15.30;99.90;;;;;;4959750;28;20091;-76
2021/05/11 06:26:55;;;;;;;1.95;0.90;;;15.40;99.90;;;;;;4959654;28;20094;-76
2021/05/11 06:29:23;;;;;;;2.00;1.05;;;15.40;99.90;;;;;;4957369;28;20142;-75
2021/05/11 06:31:49;;;;;;;2.75;0.90;;;15.50;99.90;;;;;;4949056;28;20182;-75
2021/05/11 06:34:14;;;;;;;1.23;0.70;;;15.50;99.90;;;;;;4951838;28;20078;-75
2021/05/11 06:36:40;;;;;;;1.17;0.77;;;15.50;99.90;;;;;;4966541;28;20801;-75
2021/05/11 06:39:11;;;;;;;1.13;0.80;;;15.50;99.90;;;;;;4957955;28;20088;-76
2021/05/11 06:41:38;;;;;;;1.00;0.73;;;15.60;99.90;;;;;;4954552;28;20095;-75
2021/05/11 06:44:11;;;;;;;1.27;0.70;;;15.70;99.90;;;;;;4952034;29;20068;-75
2021/05/11 06:54:35;;;;;;;0.77;0.60;;;15.90;99.90;;;;;;4951751;29;20090;-76
2021/05/11 06:57:00;;;;;;;1.48;0.88;;;15.80;99.90;;;;;;4966125;28;20075;-76
2021/05/11 06:59:27;;;;;;;0.70;0.60;;;15.80;99.90;;;;;;4953765;28;20449;-75
2021/05/11 07:01:52;;;;;;;0.90;0.60;;;15.90;99.90;;;;;;4952296;28;20528;-76
2021/05/11 07:04:18;;;;;;;2.00;1.13;;;15.90;99.90;;;;;;4953067;28;20094;-76
2021/05/11 07:06:43;;;;;;;1.55;0.85;;;15.80;99.90;;;;;;4951693;28;20090;-75
2021/05/11 07:09:13;;;;;;;1.33;0.98;;;15.90;99.90;;;;;;4952939;28;20075;-77
2021/05/11 07:14:04;;;;;;;1.95;0.77;;;15.80;99.90;;;;;;4966669;28;20084;-77
2021/05/11 07:16:29;;;;;;;1.40;1.20;;;15.60;99.90;;;;;;4947393;28;20083;-75
2021/05/11 07:18:55;;;;;;;2.13;1.20;;;15.60;99.90;;;;;;4969402;28;20079;-75
2021/05/11 07:21:21;;;;;;;1.23;1.10;;;15.60;99.90;;;;;;4970982;28;20099;-74
2021/05/11 07:23:46;;;;;;;1.67;0.95;;;15.60;99.90;;;;;;4968952;28;20081;-76
2021/05/11 07:26:25;;;;;;;2.20;1.20;;;15.50;99.90;;;;;;4967197;28;20080;-74
2021/05/11 07:29:13;;;;;;;1.88;1.17;;;15.50;99.90;;;;;;4953117;28;20082;-76
2021/05/11 07:31:39;;;;;;;4.05;1.20;;;15.50;99.90;;;;;;4948597;28;20080;-75
2021/05/11 07:34:06;;;;;;;1.95;1.42;;;15.60;99.90;;;;;;4960251;28;20125;-76
2021/05/11 07:36:33;;;;;;;5.25;1.27;;;15.60;99.90;;;;;;4957148;28;20091;-75
2021/05/11 07:38:59;;;;;;;1.13;1.00;;;15.60;99.90;;;;;;4951571;28;20115;-76
2021/05/11 07:41:25;;;;;;;1.25;0.98;;;15.70;99.90;;;;;;4964229;28;20095;-75
2021/05/11 07:43:54;;;;;;;2.00;0.98;;;15.60;99.90;;;;;;4969043;28;20071;-76
2021/05/11 07:46:42;;;;;;;2.53;1.30;;;15.60;99.90;;;;;;4952096;28;20162;-76
2021/05/11 08:15:59;;;;;;;1.40;1.10;;;16.00;99.90;;;;;;4957364;28;19973;-75
2021/05/11 08:29:13;;;;;;;2.22;1.00;;;16.20;99.90;;;;;;4951896;28;20126;-74
2021/05/11 08:31:40;;;;;;;3.45;1.10;;;16.20;99.90;;;;;;4964538;28;20083;-76
2021/05/11 08:34:06;;;;;;;2.25;0.95;;;16.30;99.90;;;;;;4961203;28;20079;-77
2021/05/11 08:36:31;;;;;;;1.42;1.02;;;16.50;99.90;;;;;;4955801;28;20080;-76
2021/05/11 08:38:59;;;;;;;3.33;1.05;;;16.50;99.90;;;;;;4967932;28;20195;-75
2021/05/11 08:41:25;;;;;;;1.58;1.27;;;16.60;99.90;;;;;;4978699;28;20140;-75
2021/05/11 08:43:51;;;;;;;3.17;1.25;;;16.70;99.90;;;;;;4956603;28;20421;-76
2021/05/11 08:46:17;;;;;;;3.88;1.15;;;16.70;99.90;;;;;;4935796;29;20075;-76
2021/05/11 08:48:42;;;;;;;1.58;1.15;;;16.80;99.90;;;;;;4936585;29;20084;-75
2021/05/11 09:16:12;;;;;;;1.63;1.38;;;17.60;99.90;;;;;;4953676;29;20090;-75
2021/05/11 09:32:31;;;;;;;1.98;1.67;;;17.70;99.90;;;;;;4970511;28;20087;-75
2021/05/11 10:10:34;;;;;;;2.40;2.20;;;17.50;99.90;;;;;;4957739;28;20122;-75
2021/05/11 10:49:32;;;;;;;6.18;3.25;;;17.20;99.90;;;;;;4960300;28;20102;-75
2021/05/11 10:52:24;;;;;;;4.47;2.70;;;17.30;99.90;;;;;;4947887;28;20222;-74
2021/05/11 10:55:06;;;;;;;5.80;3.20;;;17.30;99.90;;;;;;4950286;28;20079;-74
2021/05/11 10:57:45;;;;;;;4.78;2.40;;;17.20;99.90;;;;;;4955186;28;20078;-74
2021/05/11 11:00:33;;;;;;;6.65;3.28;;;17.30;99.90;;;;;;4950659;28;20095;-74
2021/05/11 11:03:13;;;;;;;4.57;2.50;;;17.30;99.90;;;;;;4951928;28;20079;-75
2021/05/11 11:05:40;;;;;;;4.18;2.50;;;17.30;99.90;;;;;;4949714;28;20111;-75
2021/05/11 11:08:26;;;;;;;3.15;2.60;;;17.30;99.90;;;;;;4960306;28;20076;-75
2021/05/11 11:10:51;;;;;;;4.20;3.05;;;17.30;99.90;;;;;;4949498;28;20096;-75
2021/05/11 11:13:18;;;;;;;4.13;2.90;;;17.40;99.90;;;;;;4960501;28;20544;-74
2021/05/11 11:15:43;;;;;;;5.50;2.85;;;17.40;99.90;;;;;;4967781;28;20091;-74
2021/05/11 11:18:09;;;;;;;6.20;2.88;;;17.30;99.90;;;;;;4956210;28;20082;-77
2021/05/11 11:20:40;;;;;;;5.32;3.22;;;17.40;99.90;;;;;;4962450;28;20103;-75
2021/05/11 11:26:05;;;;;;;4.53;2.67;;;17.50;99.90;;;;;;4952536;28;20123;-75
2021/05/11 11:28:30;;;;;;;4.55;3.03;;;17.70;99.90;;;;;;4967664;28;20141;-75
2021/05/11 11:30:56;;;;;;;3.17;2.88;;;17.70;99.90;;;;;;4947161;28;20126;-75
2021/05/11 11:33:22;;;;;;;4.45;2.72;;;17.70;99.90;;;;;;4932531;28;20080;-75
2021/05/11 11:35:48;;;;;;;4.38;2.65;;;17.80;99.90;;;;;;4950643;28;20556;-76
2021/05/11 11:38:21;;;;;;;5.32;2.83;;;17.90;99.90;;;;;;4962907;28;20084;-74
2021/05/11 11:40:56;;;;;;;2.78;2.58;;;18.00;99.90;;;;;;4961531;28;20160;-75
2021/05/11 11:43:27;;;;;;;3.30;3.00;;;18.10;99.90;;;;;;4963280;28;20071;-75
2021/05/11 11:45:53;;;;;;;11.05;3.30;;;18.30;99.90;;;;;;4945740;28;20075;-75
2021/05/11 11:48:20;;;;;;;6.75;3.58;;;18.40;99.90;;;;;;4959520;28;20666;-76
2021/05/11 11:50:54;;;;;;;5.22;2.90;;;18.40;99.90;;;;;;4956024;28;20099;-76
2021/05/11 11:53:24;;;;;;;3.40;3.00;;;18.60;99.90;;;;;;4950117;28;20071;-75
2021/05/11 11:56:10;;;;;;;4.30;3.10;;;18.70;99.90;;;;;;4937333;28;20338;-76
2021/05/11 11:58:35;;;;;;;7.00;3.25;;;18.70;99.90;;;;;;4957724;28;20463;-75
2021/05/11 12:01:17;;;;;;;5.20;3.13;;;18.90;99.90;;;;;;4956335;28;20096;-76
2021/05/11 12:03:44;;;;;;;4.40;2.88;;;18.90;99.90;;;;;;4959919;28;20102;-75
2021/05/11 12:06:16;;;;;;;9.63;4.10;;;19.00;99.90;;;;;;4954647;28;20081;-74
2021/05/11 12:08:41;;;;;;;9.65;3.45;;;19.00;99.90;;;;;;4956561;28;20530;-75
2021/05/11 12:11:08;;;;;;;6.22;3.28;;;19.00;99.90;;;;;;4958076;28;20099;-75
2021/05/11 12:13:39;;;;;;;6.25;3.17;;;19.10;99.90;;;;;;4954416;28;20079;-74
2021/05/11 12:16:11;;;;;;;5.65;2.92;;;19.10;99.90;;;;;;4969775;28;20079;-74
2021/05/11 12:18:38;;;;;;;5.20;2.97;;;19.20;99.90;;;;;;4966344;28;20107;-77
2021/05/11 12:21:06;;;;;;;3.58;2.60;;;19.20;99.90;;;;;;4955831;28;20087;-77
2021/05/11 12:23:32;;;;;;;4.90;3.08;;;19.20;99.90;;;;;;4955363;28;20076;-77
2021/05/11 12:26:02;;;;;;;7.93;3.65;;;19.20;99.90;;;;;;4956803;28;20094;-76
2021/05/11 12:28:43;;;;;;;7.18;3.30;;;19.30;99.90;;;;;;4955750;28;20218;-77
2021/05/11 12:31:10;;;;;;;5.30;3.45;;;19.30;99.90;;;;;;4962339;28;20528;-77
2021/05/11 12:33:43;;;;;;;3.60;3.15;;;19.30;99.90;;;;;;4960623;28;20690;-76
2021/05/11 12:36:19;;;;;;;4.95;3.15;;;19.40;99.90;;;;;;4969019;28;20158;-76
2021/05/11 12:38:45;;;;;;;5.55;3.17;;;19.40;99.90;;;;;;4972777;28;20091;-76
2021/05/11 12:41:33;;;;;;;8.75;5.30;;;19.40;99.90;;;;;;4970852;28;20467;-76
2021/05/11 12:44:00;;;;;;;5.53;4.10;;;19.50;99.90;;;;;;4973827;28;20067;-76
2021/05/11 12:46:31;;;;;;;5.72;2.90;;;19.40;99.90;;;;;;4954192;28;20103;-76
2021/05/11 12:49:18;;;;;;;4.22;2.85;;;19.40;99.90;;;;;;4965667;28;20083;-74
2021/05/11 12:51:51;;;;;;;3.55;3.08;;;19.60;99.90;;;;;;4966920;28;20076;-75
2021/05/11 12:54:42;;;;;;;4.45;3.10;;;19.50;99.90;;;;;;4963664;28;20170;-77
2021/05/11 13:00:15;;;;;;;3.40;2.95;;;19.60;99.90;;;;;;4966511;28;20138;-76
2021/05/11 13:02:51;;;;;;;7.15;3.15;;;19.60;99.90;;;;;;4970825;28;20210;-74
2021/05/11 13:16:26;;;;;;;5.53;3.00;;;19.50;99.90;;;;;;4965337;28;20086;-74
2021/05/11 13:21:53;;;;;;;5.38;3.33;;;19.40;99.90;;;;;;4970130;28;20162;-76
2021/05/11 13:27:19;;;;;;;;;;;19.50;99.90;;;;;;4966108;28;20118;-74
2021/05/11 13:32:22;;;;;;;4.45;3.00;;;19.50;99.90;;;;;;4957909;28;20083;-76
2021/05/11 13:34:47;;;;;;;4.68;2.92;;;19.50;99.90;;;;;;4957600;28;20080;-75
2021/05/11 13:37:13;;;;;;;5.90;2.88;;;19.60;99.90;;;;;;4964626;28;20087;-75
2021/05/11 13:39:38;;;;;;;7.05;3.05;;;19.70;99.90;;;;;;4972144;28;20837;-75
2021/05/11 13:42:04;;;;;;;4.47;2.83;;;19.60;99.90;;;;;;4970817;28;20071;-76
2021/05/11 13:44:30;;;;;;;6.13;2.95;;;19.60;99.90;;;;;;4968177;28;20076;-77
2021/05/11 13:46:55;;;;;;;6.50;2.63;;;19.50;99.90;;;;;;4966414;28;20705;-80
2021/05/11 13:49:21;;;;;;;6.20;2.83;;;19.40;99.90;;;;;;4969941;28;20149;-79
2021/05/11 13:51:47;;;;;;;5.07;2.85;;;19.40;99.90;;;;;;4954906;28;20122;-76
2021/05/11 13:54:16;;;;;;;6.88;2.88;;;19.30;99.90;;;;;;4971294;28;20071;-76
2021/05/11 13:57:00;;;;;;;4.90;3.22;;;19.10;99.90;;;;;;4966857;28;20443;-76
2021/05/11 14:02:35;;;;;;;3.65;3.20;;;18.90;99.90;;;;;;4969323;28;20162;-75
2021/05/11 14:05:01;;;;;;;6.65;3.30;;;19.00;99.90;;;;;;4964728;28;20079;-75
2021/05/11 14:07:29;;;;;;;6.15;3.50;;;19.00;99.90;;;;;;4966882;28;20146;-76
2021/05/11 14:09:54;;;;;;;5.50;3.38;;;19.00;99.90;;;;;;4968702;28;20099;-77
2021/05/11 14:12:20;;;;;;;3.92;3.25;;;19.00;99.90;;;;;;4956363;28;20449;-76
2021/05/11 14:14:46;;;;;;;7.50;4.00;;;18.90;99.90;;;;;;4934865;28;20083;-77
2021/05/11 14:17:11;;;;;;;4.75;3.40;;;18.90;99.90;;;;;;4952330;28;20161;-75
2021/05/11 14:19:37;;;;;;;11.43;5.57;;;18.90;99.90;;;;;;4960505;28;20123;-77
2021/05/11 14:22:03;;;;;;;7.72;3.90;;;18.80;99.90;;;;;;4958704;28;20076;-76
2021/05/11 14:24:28;;;;;;;5.03;3.45;;;18.80;99.90;;;;;;4956447;28;20103;-78
2021/05/11 14:26:54;;;;;;;5.80;4.10;;;18.80;99.90;;;;;;4960650;28;20083;-77
2021/05/11 14:29:19;;;;;;;5.80;3.20;;;18.70;99.90;;;;;;4934014;28;20071;-76
2021/05/11 14:31:45;;;;;;;6.35;3.75;;;18.70;99.90;;;;;;4956318;28;20537;-76
2021/05/11 14:34:13;;;;;;;6.35;3.92;;;18.60;99.90;;;;;;4957329;28;20119;-76
2021/05/11 14:36:38;;;;;;;5.65;3.83;;;18.60;99.90;;;;;;4969260;28;20071;-80
2021/05/11 14:39:05;;;;;;;7.85;3.75;;;18.40;99.90;;;;;;4955700;28;20092;-80
2021/05/11 14:41:31;;;;;;;7.22;3.75;;;18.50;99.90;;;;;;4963971;28;20095;-76
2021/05/11 14:43:57;;;;;;;6.30;4.13;;;18.50;99.90;;;;;;4950039;28;20174;-77
2021/05/11 14:46:23;;;;;;;5.15;3.85;;;18.40;99.90;;;;;;4961990;28;20596;-78
2021/05/11 14:48:50;;;;;;;6.70;4.18;;;18.30;99.90;;;;;;4951285;28;20101;-78
2021/05/11 14:51:15;;;;;;;8.38;4.55;;;18.30;99.90;;;;;;4964503;28;20102;-77
2021/05/11 14:53:41;;;;;;;7.22;4.60;;;18.30;99.90;;;;;;4966868;28;20076;-79
2021/05/11 14:56:12;;;;;;;9.50;4.45;;;18.30;99.90;;;;;;4962427;28;20537;-79
2021/05/11 14:58:38;;;;;;;6.03;4.47;;;18.30;99.90;;;;;;4954317;28;20545;-78
2021/05/11 15:01:04;;;;;;;6.00;4.07;;;18.30;99.90;;;;;;4938745;28;20099;-78
2021/05/11 15:03:29;;;;;;;6.75;4.57;;;18.40;99.90;;;;;;4948643;28;20115;-80
2021/05/11 15:05:55;;;;;;;5.32;4.40;;;18.40;99.90;;;;;;4965746;28;20153;-79
2021/05/11 15:08:21;;;;;;;6.80;4.63;;;18.30;99.90;;;;;;4935951;28;20076;-75
2021/05/11 15:10:46;;;;;;;4.95;4.43;;;18.20;99.90;;;;;;4954307;28;20512;-76
2021/05/11 15:13:13;;;;;;;6.10;4.38;;;18.20;99.90;;;;;;4948328;28;20082;-74
2021/05/11 15:15:39;;;;;;;6.95;5.00;;;18.20;99.90;;;;;;4950223;28;20091;-74
2021/05/11 15:18:06;;;;;;;5.57;4.68;;;18.20;99.90;;;;;;4936102;28;20083;-76
2021/05/11 15:20:35;;;;;;;7.10;6.40;;;18.20;99.90;;;;;;4964039;28;20561;-75
2021/05/11 15:23:02;;;;;;;10.60;7.25;;;18.10;99.90;;;;;;4965825;28;20083;-75
2021/05/11 15:25:28;;;;;;;7.88;6.65;;;18.00;99.90;;;;;;4963536;28;20560;-75
2021/05/11 15:27:54;;;;;;;8.05;6.78;;;18.10;99.90;;;;;;4964355;28;20144;-74
2021/05/11 15:30:28;;;;;;;9.15;6.28;;;18.00;99.90;;;;;;4963161;28;20098;-77
2021/05/11 15:32:56;;;;;;;7.78;6.97;;;17.90;99.90;;;;;;4966262;28;20085;-76
2021/05/11 15:35:29;;;;;;;9.55;6.88;;;17.90;99.90;;;;;;4966765;28;20087;-76
2021/05/11 15:37:59;;;;;;;8.35;7.03;;;17.90;99.90;;;;;;4970285;28;20067;-75
2021/05/11 15:40:32;;;;;;;9.02;7.65;;;17.90;99.90;;;;;;4970121;28;20102;-75
2021/05/11 15:42:58;;;;;;;8.60;7.35;;;17.80;99.90;;;;;;4951418;28;20075;-77
2021/05/11 15:45:25;;;;;;;10.60;8.13;;;17.80;99.90;;;;;;4958336;28;20206;-76
2021/05/11 15:47:56;;;;;;;9.98;8.07;;;17.70;99.90;;;;;;4961846;28;20501;-75
2021/05/11 15:50:31;;;;;;;12.48;8.15;;;17.60;99.90;;;;;;4967180;28;20170;-77
2021/05/11 15:53:02;;;;;;;8.25;7.45;;;17.60;99.90;;;;;;4956067;28;20555;-76
2021/05/11 15:55:30;;;;;;;9.25;7.43;;;17.50;99.90;;;;;;4955130;28;20075;-77
2021/05/11 15:57:55;;;;;;;9.60;7.68;;;17.50;99.90;;;;;;4954107;28;20075;-76
2021/05/11 16:00:22;;;;;;;8.85;7.50;;;17.50;99.90;;;;;;4962508;28;20426;-76
2021/05/11 16:02:48;;;;;;;9.65;7.50;;;17.50;99.90;;;;;;4950816;28;20456;-76
2021/05/11 16:05:17;;;;;;;8.45;7.03;;;17.50;99.90;;;;;;4954700;28;20103;-76
2021/05/11 16:07:42;;;;;;;10.23;7.07;;;17.50;99.90;;;;;;4955512;28;20674;-76
2021/05/11 16:10:09;;;;;;;9.43;7.43;;;17.40;99.90;;;;;;4950678;28;20106;-75
2021/05/11 16:12:35;;;;;;;8.07;6.72;;;17.40;99.90;;;;;;4952603;28;20086;-76
2021/05/11 16:15:02;;;;;;;6.88;6.18;;;17.30;99.90;;;;;;4954212;28;20078;-76
2021/05/11 16:17:28;;;;;;;7.70;6.20;;;17.30;99.90;;;;;;4947865;28;20088;-75
2021/05/11 16:19:53;;;;;;;7.55;6.55;;;17.30;99.90;;;;;;4967404;28;20106;-78
2021/05/11 16:22:19;;;;;;;10.05;6.68;;;17.10;99.90;;;;;;4965784;28;20570;-78
2021/05/11 16:24:45;;;;;;;9.15;7.10;;;17.20;99.90;;;;;;4966365;28;22022;-76
2021/05/11 16:27:10;;;;;;;7.18;6.20;;;17.10;99.90;;;;;;4961049;28;20079;-76
2021/05/11 16:29:36;;;;;;;8.75;6.25;;;17.10;99.90;;;;;;4966902;28;20091;-79
2021/05/11 16:32:04;;;;;;;7.93;6.20;;;17.10;99.90;;;;;;4953661;28;20439;-80
2021/05/11 16:34:31;;;;;;;10.27;6.97;;;17.10;99.90;;;;;;4953287;28;20087;-78
2021/05/11 16:36:57;;;;;;;7.78;6.50;;;17.00;99.90;;;;;;4946806;28;20083;-79
2021/05/11 16:39:23;;;;;;;7.55;6.70;;;16.90;99.90;;;;;;4968823;28;20200;-80
2021/05/11 16:41:49;;;;;;;8.18;6.45;;;16.90;99.90;;;;;;4952696;28;20699;-79
2021/05/11 16:44:15;;;;;;;8.15;6.75;;;16.90;99.90;;;;;;4946873;28;20190;-75
2021/05/11 16:46:41;;;;;;;8.65;6.32;;;16.90;99.90;;;;;;4947576;29;20437;-76
2021/05/11 16:49:06;;;;;;;6.95;5.78;;;16.90;99.90;;;;;;4961037;28;20082;-78
2021/05/11 16:51:32;;;;;;;10.65;6.25;;;16.90;99.90;;;;;;4951684;28;20098;-77
2021/05/11 16:53:57;;;;;;;7.82;5.40;;;16.90;99.90;;;;;;4942490;28;20627;-77
2021/05/11 16:56:23;;;;;;;6.40;5.68;;;17.00;99.90;;;;;;4972505;28;20111;-77
2021/05/11 16:58:49;;;;;;;7.53;6.22;;;16.90;99.90;;;;;;4959857;28;20523;-78
2021/05/11 17:01:15;;;;;;;8.48;6.80;;;16.80;99.90;;;;;;4974070;28;20440;-77
2021/05/11 17:03:41;;;;;;;8.32;6.05;;;16.90;99.90;;;;;;4958863;28;20079;-78